createdAt,value
2023-03-02T00:03:26.917Z,3.23
2023-03-02T00:07:34.627Z,3.25
2023-03-02T00:11:38.719Z,3.25
2023-03-02T00:15:40.832Z,3.22
2023-03-02T00:19:42.421Z,3.23
2023-03-02T00:23:44.830Z,3.17
2023-03-02T00:27:46.356Z,3.16
2023-03-02T00:31:47.968Z,3.16
2023-03-02T00:35:50.098Z,3.13
2023-03-02T00:39:52.796Z,3.12
2023-03-02T00:43:54.663Z,3.12
2023-03-02T00:47:56.408Z,3.07
2023-03-02T00:51:58.000Z,3.05
2023-03-02T00:56:00.995Z,2.99
2023-03-02T01:00:02.868Z,2.95
2023-03-02T01:04:08.242Z,2.97
2023-03-02T01:08:10.048Z,2.90
2023-03-02T01:12:12.135Z,2.92
2023-03-02T01:16:14.472Z,2.81
2023-03-02T01:20:17.402Z,2.77
2023-03-02T01:24:18.990Z,2.69
2023-03-02T01:28:20.518Z,2.71
2023-03-02T01:32:22.160Z,2.66
2023-03-02T01:36:24.218Z,2.62
2023-03-02T01:40:25.895Z,2.50
2023-03-02T01:44:43.936Z,2.40
2023-03-02T01:49:10.576Z,2.33
2023-03-02T01:53:34.808Z,2.33
2023-03-02T01:57:43.749Z,2.32
2023-03-02T02:01:50.458Z,2.36
2023-03-02T02:06:18.090Z,2.36
2023-03-02T02:10:20.158Z,2.36
2023-03-02T02:14:22.233Z,2.27
2023-03-02T02:18:23.818Z,2.20
2023-03-02T02:22:50.122Z,2.25
2023-03-02T02:26:54.373Z,2.23
2023-03-02T02:31:17.298Z,2.15
2023-03-02T02:35:24.368Z,2.19
2023-03-02T02:39:31.652Z,2.04
2023-03-02T02:43:34.877Z,2.08
2023-03-02T02:47:36.839Z,2.07
2023-03-02T02:51:38.708Z,2.05
2023-03-02T02:55:42.413Z,2.07
2023-03-02T03:00:00.284Z,2.01
2023-03-02T03:04:06.065Z,1.93
2023-03-02T03:08:10.541Z,1.90
2023-03-02T03:12:17.564Z,1.89
2023-03-02T03:16:19.741Z,1.85
2023-03-02T03:20:25.784Z,1.85
2023-03-02T03:24:30.277Z,1.79
2023-03-02T03:28:33.768Z,1.79
2023-03-02T03:32:36.062Z,1.81
2023-03-02T03:36:39.193Z,1.83
2023-03-02T03:40:41.550Z,1.81
2023-03-02T03:44:43.316Z,1.82
2023-03-02T03:48:45.239Z,1.82
2023-03-02T03:52:46.891Z,1.79
2023-03-02T03:56:56.688Z,1.77
2023-03-02T04:01:00.554Z,1.74
2023-03-02T04:05:06.381Z,1.67
2023-03-02T04:09:08.893Z,1.68
2023-03-02T04:13:10.944Z,1.68
2023-03-02T04:17:12.860Z,1.61
2023-03-02T04:21:18.630Z,1.61
2023-03-02T04:25:22.699Z,1.54
2023-03-02T04:29:26.751Z,1.56
2023-03-02T04:33:29.143Z,1.54
2023-03-02T04:37:31.383Z,1.52
2023-03-02T04:41:33.323Z,1.53
2023-03-02T04:45:34.997Z,1.52
2023-03-02T04:49:36.628Z,1.44
2023-03-02T04:53:38.257Z,1.35
2023-03-02T04:57:39.818Z,1.32
2023-03-02T05:01:41.736Z,1.29
2023-03-02T05:05:43.335Z,1.26
2023-03-02T05:09:44.902Z,1.28
2023-03-02T05:13:46.451Z,1.31
2023-03-02T05:17:48.221Z,1.20
2023-03-02T05:21:49.889Z,1.20
2023-03-02T05:25:52.871Z,1.21
2023-03-02T05:29:54.442Z,1.18
2023-03-02T05:33:55.959Z,1.17
2023-03-02T05:37:57.694Z,1.18
2023-03-02T05:41:59.234Z,1.17
2023-03-02T05:46:00.936Z,1.18
2023-03-02T05:50:02.505Z,1.16
2023-03-02T05:54:04.097Z,1.14
2023-03-02T05:58:12.966Z,1.14
2023-03-02T06:02:14.619Z,1.11
2023-03-02T06:06:16.888Z,1.11
2023-03-02T06:10:18.564Z,1.14
2023-03-02T06:14:20.116Z,1.16
2023-03-02T06:18:21.774Z,1.16
2023-03-02T06:22:23.412Z,1.17
2023-03-02T06:26:25.093Z,1.17
2023-03-02T06:30:27.872Z,1.21
2023-03-02T06:34:29.464Z,1.24
2023-03-02T06:38:31.313Z,1.24
2023-03-02T06:42:32.825Z,1.24
2023-03-02T06:46:34.635Z,1.28
2023-03-02T06:50:36.461Z,1.35
2023-03-02T06:54:38.010Z,1.36
2023-03-02T06:58:39.547Z,1.42
2023-03-02T07:02:41.047Z,1.42
2023-03-02T07:06:42.547Z,1.42
2023-03-02T07:10:44.176Z,1.47
2023-03-02T07:14:45.720Z,1.49
2023-03-02T07:18:47.254Z,1.56
2023-03-02T07:22:49.517Z,1.67
2023-03-02T07:26:51.106Z,1.75
2023-03-02T07:30:53.625Z,1.86
2023-03-02T07:34:55.361Z,1.95
2023-03-02T07:38:57.553Z,2.07
2023-03-02T07:42:59.254Z,2.19
2023-03-02T07:47:01.031Z,2.29
2023-03-02T07:51:04.362Z,2.41
2023-03-02T07:55:06.114Z,2.53
2023-03-02T07:59:07.683Z,2.63
2023-03-02T08:03:09.365Z,2.77
2023-03-02T08:07:10.912Z,2.89
2023-03-02T08:11:15.409Z,3.02
2023-03-02T08:15:16.996Z,3.20
2023-03-02T08:19:21.353Z,3.35
2023-03-02T08:23:23.380Z,3.52
2023-03-02T08:27:25.017Z,3.64
2023-03-02T08:31:27.207Z,3.82
2023-03-02T08:35:28.923Z,4.00
2023-03-02T08:39:32.049Z,4.14
2023-03-02T08:43:34.301Z,4.26
2023-03-02T08:47:35.961Z,4.42
2023-03-02T08:51:37.490Z,4.53
2023-03-02T08:55:39.026Z,4.67
2023-03-02T08:59:40.720Z,4.79
2023-03-02T09:03:42.234Z,4.91
2023-03-02T09:07:44.147Z,5.06
2023-03-02T09:11:46.395Z,5.22
2023-03-02T09:15:47.914Z,5.35
2023-03-02T09:19:49.411Z,5.44
2023-03-02T09:23:55.590Z,5.58
2023-03-02T09:27:57.162Z,5.66
2023-03-02T09:31:58.835Z,5.81
2023-03-02T09:36:01.537Z,5.93
2023-03-02T09:40:03.344Z,6.05
2023-03-02T09:44:32.042Z,6.17
2023-03-02T09:49:14.784Z,6.30
2023-03-02T09:53:34.475Z,6.39
2023-03-02T09:57:38.777Z,6.45
2023-03-02T10:01:52.443Z,6.53
2023-03-02T10:05:55.361Z,6.68
2023-03-02T10:10:21.954Z,6.79
2023-03-02T10:14:38.801Z,6.86
2023-03-02T10:18:49.028Z,7.01
2023-03-02T10:22:54.759Z,7.19
2023-03-02T10:27:10.364Z,7.42
2023-03-02T10:31:24.722Z,7.57
2023-03-02T10:35:29.033Z,7.66
2023-03-02T10:39:30.619Z,7.81
2023-03-02T10:43:46.245Z,7.91
2023-03-02T10:47:47.840Z,7.99
2023-03-02T10:51:59.490Z,8.18
2023-03-02T10:56:01.093Z,8.37
2023-03-02T11:00:16.429Z,8.37
2023-03-02T11:04:18.153Z,8.45
2023-03-02T11:08:23.369Z,8.52
2023-03-02T11:12:25.041Z,8.57
2023-03-02T11:16:32.563Z,8.61
2023-03-02T11:20:39.600Z,8.71
2023-03-02T11:24:49.012Z,8.79
2023-03-02T11:29:03.328Z,8.97
2023-03-02T11:33:33.330Z,9.08
2023-03-02T11:37:53.338Z,9.13
2023-03-02T11:41:55.041Z,9.20
2023-03-02T11:46:08.563Z,9.26
2023-03-02T11:50:15.396Z,9.26
2023-03-02T11:54:36.728Z,9.37
2023-03-02T11:58:39.061Z,9.56
2023-03-02T12:02:40.814Z,9.75
2023-03-02T12:06:45.213Z,9.78
2023-03-02T12:10:58.544Z,9.86
2023-03-02T12:15:01.145Z,9.89
2023-03-02T12:19:18.001Z,9.95
2023-03-02T12:23:23.415Z,10.04
2023-03-02T12:27:27.691Z,10.17
2023-03-02T12:31:44.583Z,10.28
2023-03-02T12:35:48.610Z,10.36
2023-03-02T12:40:18.789Z,10.39
2023-03-02T12:44:35.229Z,10.49
2023-03-02T12:48:57.998Z,10.63
2023-03-02T12:53:05.624Z,10.76
2023-03-02T12:57:08.758Z,10.88
2023-03-02T13:01:21.525Z,10.93
2023-03-02T13:05:26.380Z,11.03
2023-03-02T13:09:29.063Z,11.08
2023-03-02T13:13:45.105Z,11.09
2023-03-02T13:17:56.732Z,11.17
2023-03-02T13:21:59.526Z,11.30
2023-03-02T13:26:04.392Z,11.42
2023-03-02T13:30:30.511Z,11.51
2023-03-02T13:34:46.644Z,11.56
2023-03-02T13:38:51.003Z,11.59
2023-03-02T13:42:53.618Z,11.67
2023-03-02T13:46:55.715Z,11.72
2023-03-02T13:51:15.646Z,11.84
2023-03-02T13:55:19.590Z,11.93
2023-03-02T13:59:22.253Z,11.97
2023-03-02T14:03:30.185Z,12.00
2023-03-02T14:07:31.796Z,12.04
2023-03-02T14:11:40.251Z,12.11
2023-03-02T14:15:46.649Z,12.15
2023-03-02T14:19:52.692Z,12.19
2023-03-02T14:23:54.754Z,12.25
2023-03-02T14:27:56.545Z,12.30
2023-03-02T14:32:00.935Z,12.40
2023-03-02T14:36:03.741Z,12.46
2023-03-02T14:40:10.346Z,12.49
2023-03-02T14:44:11.966Z,12.55
2023-03-02T14:48:13.472Z,12.58
2023-03-02T14:52:32.071Z,12.63
2023-03-02T14:56:33.790Z,12.66
2023-03-02T15:00:35.520Z,12.66
2023-03-02T15:04:37.174Z,12.67
2023-03-02T15:08:38.771Z,12.69
2023-03-02T15:12:40.308Z,12.70
2023-03-02T15:16:42.872Z,12.69
2023-03-02T15:20:44.456Z,12.71
2023-03-02T15:24:46.029Z,12.71
2023-03-02T15:28:51.536Z,12.73
2023-03-02T15:32:54.733Z,12.70
2023-03-02T15:36:56.335Z,12.63
2023-03-02T15:40:57.906Z,12.56
2023-03-02T15:44:59.548Z,12.49
2023-03-02T15:49:01.077Z,12.41
2023-03-02T15:53:02.677Z,12.34
2023-03-02T15:57:04.372Z,12.26
2023-03-02T16:01:11.054Z,12.19
2023-03-02T16:05:13.776Z,12.11
2023-03-02T16:09:15.775Z,12.01
2023-03-02T16:13:17.315Z,11.93
2023-03-02T16:17:19.099Z,11.75
2023-03-02T16:21:20.762Z,11.63
2023-03-02T16:25:22.415Z,11.54
2023-03-02T16:29:24.254Z,11.39
2023-03-02T16:33:25.907Z,11.26
2023-03-02T16:37:27.462Z,11.12
2023-03-02T16:41:29.058Z,11.01
2023-03-02T16:45:30.648Z,10.93
2023-03-02T16:49:32.302Z,10.78
2023-03-02T16:53:34.200Z,10.68
2023-03-02T16:57:35.877Z,10.57
2023-03-02T17:01:37.554Z,10.47
2023-03-02T17:05:42.597Z,10.39
2023-03-02T17:09:44.165Z,10.31
2023-03-02T17:13:45.906Z,10.18
2023-03-02T17:17:47.511Z,10.09
2023-03-02T17:21:49.052Z,9.96
2023-03-02T17:25:50.783Z,9.86
2023-03-02T17:29:52.414Z,9.73
2023-03-02T17:33:54.019Z,9.70
2023-03-02T17:37:55.617Z,9.68
2023-03-02T17:41:57.225Z,9.68
2023-03-02T17:46:15.496Z,9.62
2023-03-02T17:50:19.132Z,9.53
2023-03-02T17:54:20.981Z,9.48
2023-03-02T17:58:23.357Z,9.40
2023-03-02T18:02:25.903Z,9.30
2023-03-02T18:06:28.236Z,9.22
2023-03-02T18:10:29.908Z,9.15
2023-03-02T18:14:31.581Z,9.13
2023-03-02T18:18:33.720Z,9.08
2023-03-02T18:22:35.384Z,9.03
2023-03-02T18:26:37.224Z,8.96
2023-03-02T18:30:38.860Z,8.91
2023-03-02T18:34:40.658Z,8.83
2023-03-02T18:38:42.406Z,8.78
2023-03-02T18:42:43.990Z,8.68
2023-03-02T18:46:45.863Z,8.61
2023-03-02T18:50:47.658Z,8.57
2023-03-02T18:54:49.450Z,8.47
2023-03-02T18:58:51.525Z,8.45
2023-03-02T19:02:53.116Z,8.40
2023-03-02T19:06:56.162Z,8.34
2023-03-02T19:10:57.741Z,8.29
2023-03-02T19:14:59.502Z,8.21
2023-03-02T19:19:01.013Z,8.18
2023-03-02T19:23:02.729Z,8.14
2023-03-02T19:27:04.290Z,8.09
2023-03-02T19:31:08.841Z,8.03
2023-03-02T19:35:14.670Z,7.94
2023-03-02T19:39:16.357Z,7.74
2023-03-02T19:43:20.280Z,7.67
2023-03-02T19:47:21.948Z,7.66
2023-03-02T19:51:23.582Z,7.58
2023-03-02T19:55:26.096Z,7.54
2023-03-02T19:59:29.272Z,7.48
2023-03-02T20:03:30.828Z,7.48
2023-03-02T20:07:32.378Z,7.45
2023-03-02T20:11:34.689Z,7.42
2023-03-02T20:15:39.957Z,7.39
2023-03-02T20:19:43.307Z,7.36
2023-03-02T20:23:46.204Z,7.29
2023-03-02T20:27:49.256Z,7.23
2023-03-02T20:31:51.020Z,7.16
2023-03-02T20:35:53.550Z,7.09
2023-03-02T20:39:55.269Z,7.05
2023-03-02T20:43:57.003Z,7.00
2023-03-02T20:47:58.952Z,6.96
2023-03-02T20:52:01.539Z,6.89
2023-03-02T20:56:03.281Z,6.83
2023-03-02T21:00:07.475Z,6.76
2023-03-02T21:04:09.077Z,6.71
2023-03-02T21:08:14.638Z,6.69
2023-03-02T21:12:16.327Z,6.63
2023-03-02T21:16:22.328Z,6.46
2023-03-02T21:20:26.582Z,6.39
2023-03-02T21:24:28.480Z,6.40
2023-03-02T21:28:30.125Z,6.36
2023-03-02T21:32:33.201Z,6.33
2023-03-02T21:36:34.893Z,6.20
2023-03-02T21:40:42.925Z,6.20
2023-03-02T21:44:44.463Z,6.21
2023-03-02T21:48:47.065Z,6.16
2023-03-02T21:52:48.952Z,6.11
2023-03-02T21:56:50.595Z,6.05
2023-03-02T22:00:52.412Z,5.84
2023-03-02T22:04:53.920Z,5.80
2023-03-02T22:08:56.928Z,5.78
2023-03-02T22:13:23.535Z,5.69
2023-03-02T22:17:25.249Z,5.56
2023-03-02T22:21:38.054Z,5.51
2023-03-02T22:25:39.960Z,5.49
2023-03-02T22:29:44.152Z,5.38
2023-03-02T22:33:45.682Z,5.37
2023-03-02T22:37:47.454Z,5.29
2023-03-02T22:41:50.027Z,5.22
2023-03-02T22:45:53.204Z,5.15
2023-03-02T22:50:23.575Z,5.14
2023-03-02T22:54:35.831Z,5.02
2023-03-02T22:58:46.752Z,5.08
2023-03-02T23:02:48.340Z,5.05
2023-03-02T23:07:01.138Z,5.01
2023-03-02T23:11:03.127Z,4.93
2023-03-02T23:15:17.529Z,4.96
2023-03-02T23:19:19.177Z,4.90
2023-03-02T23:23:26.546Z,4.83
2023-03-02T23:27:28.283Z,4.86
2023-03-02T23:31:30.076Z,4.75
2023-03-02T23:35:31.785Z,4.71
2023-03-02T23:39:33.329Z,4.71
2023-03-02T23:43:35.871Z,4.69
2023-03-02T23:47:37.460Z,4.64
2023-03-02T23:51:38.996Z,4.62
2023-03-02T23:55:46.619Z,4.49
2023-03-02T23:59:48.327Z,4.50
